sensor_id;sensor_type;location;lat;lon;timestamp;temperature;humidity
11446;DHT22;5779;64.178;15.432;2022-08-06T00:02:02;6.80;99.90
11446;DHT22;5779;64.178;15.432;2022-08-06T00:04:49;6.80;99.90
11446;DHT22;5779;64.178;15.432;2022-08-06T00:07:36;7.00;99.90
11446;DHT22;5779;64.178;15.432;2022-08-06T00:10:23;7.00;99.90
11446;DHT22;5779;64.178;15.432;2022-08-06T00:13:12;7.00;99.90
11446;DHT22;5779;64.178;15.432;2022-08-06T00:15:59;7.20;99.90
11446;DHT22;5779;64.178;15.432;2022-08-06T00:18:45;7.20;99.90
11446;DHT22;5779;64.178;15.432;2022-08-06T00:21:32;7.10;99.90
11446;DHT22;5779;64.178;15.432;2022-08-06T00:24:18;7.10;99.90
11446;DHT22;5779;64.178;15.432;2022-08-06T00:27:05;7.30;99.90
11446;DHT22;5779;64.178;15.432;2022-08-06T00:29:53;7.50;99.90
11446;DHT22;5779;64.178;15.432;2022-08-06T00:32:40;7.60;99.90
11446;DHT22;5779;64.178;15.432;2022-08-06T00:35:26;7.70;99.90
11446;DHT22;5779;64.178;15.432;2022-08-06T00:38:13;7.80;99.90
11446;DHT22;5779;64.178;15.432;2022-08-06T00:40:59;7.80;99.90
11446;DHT22;5779;64.178;15.432;2022-08-06T00:43:45;7.80;99.90
11446;DHT22;5779;64.178;15.432;2022-08-06T00:46:34;7.90;99.90
11446;DHT22;5779;64.178;15.432;2022-08-06T00:49:21;7.90;99.90
11446;DHT22;5779;64.178;15.432;2022-08-06T00:52:07;7.90;99.90
11446;DHT22;5779;64.178;15.432;2022-08-06T00:54:53;7.90;99.90
11446;DHT22;5779;64.178;15.432;2022-08-06T00:57:40;7.80;99.90
11446;DHT22;5779;64.178;15.432;2022-08-06T01:00:27;7.70;99.90
11446;DHT22;5779;64.178;15.432;2022-08-06T01:03:15;7.80;99.90
11446;DHT22;5779;64.178;15.432;2022-08-06T01:06:02;7.80;99.90
11446;DHT22;5779;64.178;15.432;2022-08-06T01:08:49;7.90;99.90
11446;DHT22;5779;64.178;15.432;2022-08-06T01:11:35;7.90;99.90
11446;DHT22;5779;64.178;15.432;2022-08-06T01:14:22;8.00;99.90
11446;DHT22;5779;64.178;15.432;2022-08-06T01:17:14;8.20;99.90
11446;DHT22;5779;64.178;15.432;2022-08-06T01:20:16;8.30;99.90
11446;DHT22;5779;64.178;15.432;2022-08-06T01:23:28;8.30;99.90
11446;DHT22;5779;64.178;15.432;2022-08-06T01:26:34;8.20;99.90
11446;DHT22;5779;64.178;15.432;2022-08-06T01:29:26;8.10;99.90
11446;DHT22;5779;64.178;15.432;2022-08-06T01:32:17;8.20;99.90
11446;DHT22;5779;64.178;15.432;2022-08-06T01:35:07;8.60;99.90
11446;DHT22;5779;64.178;15.432;2022-08-06T01:37:58;8.60;99.90
11446;DHT22;5779;64.178;15.432;2022-08-06T01:40:47;8.70;99.90
11446;DHT22;5779;64.178;15.432;2022-08-06T01:43:35;8.80;99.90
11446;DHT22;5779;64.178;15.432;2022-08-06T01:46:25;8.80;99.90
11446;DHT22;5779;64.178;15.432;2022-08-06T01:49:13;8.80;99.90
11446;DHT22;5779;64.178;15.432;2022-08-06T01:52:02;9.00;99.90
11446;DHT22;5779;64.178;15.432;2022-08-06T01:54:52;9.00;99.90
11446;DHT22;5779;64.178;15.432;2022-08-06T01:57:46;8.90;99.90
11446;DHT22;5779;64.178;15.432;2022-08-06T02:00:39;8.90;99.90
11446;DHT22;5779;64.178;15.432;2022-08-06T02:03:31;8.80;99.90
11446;DHT22;5779;64.178;15.432;2022-08-06T02:06:21;8.90;99.90
11446;DHT22;5779;64.178;15.432;2022-08-06T02:09:13;9.00;99.90
11446;DHT22;5779;64.178;15.432;2022-08-06T02:12:04;8.90;99.90
11446;DHT22;5779;64.178;15.432;2022-08-06T02:14:55;8.70;99.90
11446;DHT22;5779;64.178;15.432;2022-08-06T02:17:47;8.60;99.90
11446;DHT22;5779;64.178;15.432;2022-08-06T02:20:38;8.70;99.90
11446;DHT22;5779;64.178;15.432;2022-08-06T02:23:27;8.70;99.90
11446;DHT22;5779;64.178;15.432;2022-08-06T02:26:15;8.70;99.90
11446;DHT22;5779;64.178;15.432;2022-08-06T02:29:06;8.60;99.90
11446;DHT22;5779;64.178;15.432;2022-08-06T02:31:53;8.70;99.90
11446;DHT22;5779;64.178;15.432;2022-08-06T02:34:40;8.70;99.90
11446;DHT22;5779;64.178;15.432;2022-08-06T02:37:31;8.60;99.90
11446;DHT22;5779;64.178;15.432;2022-08-06T02:40:22;8.60;99.90
11446;DHT22;5779;64.178;15.432;2022-08-06T02:43:14;8.50;99.90
11446;DHT22;5779;64.178;15.432;2022-08-06T02:46:06;8.40;99.90
11446;DHT22;5779;64.178;15.432;2022-08-06T02:48:59;8.40;99.90
11446;DHT22;5779;64.178;15.432;2022-08-06T02:51:53;8.40;99.90
11446;DHT22;5779;64.178;15.432;2022-08-06T02:54:44;8.40;99.90
11446;DHT22;5779;64.178;15.432;2022-08-06T02:57:36;8.40;99.90
11446;DHT22;5779;64.178;15.432;2022-08-06T03:00:24;8.40;99.90
11446;DHT22;5779;64.178;15.432;2022-08-06T03:03:14;8.40;99.90
11446;DHT22;5779;64.178;15.432;2022-08-06T03:06:03;8.40;99.90
11446;DHT22;5779;64.178;15.432;2022-08-06T03:08:51;8.50;99.90
11446;DHT22;5779;64.178;15.432;2022-08-06T03:11:41;8.50;99.90
11446;DHT22;5779;64.178;15.432;2022-08-06T03:14:29;8.60;99.90
11446;DHT22;5779;64.178;15.432;2022-08-06T03:17:17;8.70;99.90
11446;DHT22;5779;64.178;15.432;2022-08-06T03:20:06;8.80;99.90
11446;DHT22;5779;64.178;15.432;2022-08-06T03:22:57;8.80;99.90
11446;DHT22;5779;64.178;15.432;2022-08-06T03:25:45;8.80;99.90
11446;DHT22;5779;64.178;15.432;2022-08-06T03:28:34;8.90;99.90
11446;DHT22;5779;64.178;15.432;2022-08-06T03:31:22;8.80;99.90
11446;DHT22;5779;64.178;15.432;2022-08-06T03:34:09;8.80;99.90
11446;DHT22;5779;64.178;15.432;2022-08-06T03:36:57;8.90;99.90
11446;DHT22;5779;64.178;15.432;2022-08-06T03:39:44;9.00;99.90
11446;DHT22;5779;64.178;15.432;2022-08-06T03:42:32;9.20;99.90
11446;DHT22;5779;64.178;15.432;2022-08-06T03:45:21;9.20;99.90
11446;DHT22;5779;64.178;15.432;2022-08-06T03:48:09;9.20;99.90
11446;DHT22;5779;64.178;15.432;2022-08-06T03:51:02;9.20;99.90
11446;DHT22;5779;64.178;15.432;2022-08-06T03:53:51;9.20;99.90
11446;DHT22;5779;64.178;15.432;2022-08-06T03:56:39;9.30;99.90
11446;DHT22;5779;64.178;15.432;2022-08-06T03:59:28;9.10;99.90
11446;DHT22;5779;64.178;15.432;2022-08-06T04:02:17;8.90;99.90
11446;DHT22;5779;64.178;15.432;2022-08-06T04:05:05;8.90;99.90
11446;DHT22;5779;64.178;15.432;2022-08-06T04:07:55;8.80;99.90
11446;DHT22;5779;64.178;15.432;2022-08-06T04:10:44;8.80;99.90
11446;DHT22;5779;64.178;15.432;2022-08-06T04:13:30;8.90;99.90
11446;DHT22;5779;64.178;15.432;2022-08-06T04:16:17;9.20;99.90
11446;DHT22;5779;64.178;15.432;2022-08-06T04:19:07;9.30;99.90
11446;DHT22;5779;64.178;15.432;2022-08-06T04:21:56;9.40;99.90
11446;DHT22;5779;64.178;15.432;2022-08-06T04:24:43;9.30;99.90
11446;DHT22;5779;64.178;15.432;2022-08-06T04:27:31;9.40;99.90
11446;DHT22;5779;64.178;15.432;2022-08-06T04:30:21;9.50;99.90
11446;DHT22;5779;64.178;15.432;2022-08-06T04:33:11;9.50;99.90
11446;DHT22;5779;64.178;15.432;2022-08-06T04:36:00;9.40;99.90
11446;DHT22;5779;64.178;15.432;2022-08-06T04:38:52;9.40;99.90
11446;DHT22;5779;64.178;15.432;2022-08-06T04:41:39;9.60;99.90
11446;DHT22;5779;64.178;15.432;2022-08-06T04:44:26;9.70;99.90
11446;DHT22;5779;64.178;15.432;2022-08-06T04:47:14;9.70;99.90
11446;DHT22;5779;64.178;15.432;2022-08-06T04:50:01;9.80;99.90
11446;DHT22;5779;64.178;15.432;2022-08-06T04:52:50;9.80;99.90
11446;DHT22;5779;64.178;15.432;2022-08-06T04:55:37;9.50;99.90
11446;DHT22;5779;64.178;15.432;2022-08-06T04:58:24;9.40;99.90
11446;DHT22;5779;64.178;15.432;2022-08-06T05:01:10;9.40;99.90
11446;DHT22;5779;64.178;15.432;2022-08-06T05:03:57;9.50;99.90
11446;DHT22;5779;64.178;15.432;2022-08-06T05:06:46;9.60;99.90
11446;DHT22;5779;64.178;15.432;2022-08-06T05:09:35;10.00;99.90
11446;DHT22;5779;64.178;15.432;2022-08-06T05:12:27;10.10;99.90
11446;DHT22;5779;64.178;15.432;2022-08-06T05:15:18;10.30;99.90
11446;DHT22;5779;64.178;15.432;2022-08-06T05:18:12;10.40;99.90
11446;DHT22;5779;64.178;15.432;2022-08-06T05:21:00;10.50;99.90
11446;DHT22;5779;64.178;15.432;2022-08-06T05:23:50;10.60;99.90
11446;DHT22;5779;64.178;15.432;2022-08-06T05:26:39;10.70;99.90
11446;DHT22;5779;64.178;15.432;2022-08-06T05:29:25;10.60;99.90
11446;DHT22;5779;64.178;15.432;2022-08-06T05:32:13;10.40;99.90
11446;DHT22;5779;64.178;15.432;2022-08-06T05:35:00;10.20;99.90
11446;DHT22;5779;64.178;15.432;2022-08-06T05:37:46;10.20;99.90
11446;DHT22;5779;64.178;15.432;2022-08-06T05:40:33;10.30;99.90
11446;DHT22;5779;64.178;15.432;2022-08-06T05:43:24;10.40;99.90
11446;DHT22;5779;64.178;15.432;2022-08-06T05:46:13;10.50;99.90
11446;DHT22;5779;64.178;15.432;2022-08-06T05:49:03;10.50;99.90
11446;DHT22;5779;64.178;15.432;2022-08-06T05:51:55;10.30;99.90
11446;DHT22;5779;64.178;15.432;2022-08-06T05:54:48;10.20;99.90
11446;DHT22;5779;64.178;15.432;2022-08-06T05:57:39;10.20;99.90
11446;DHT22;5779;64.178;15.432;2022-08-06T06:00:31;10.10;99.90
11446;DHT22;5779;64.178;15.432;2022-08-06T06:03:18;10.00;99.90
11446;DHT22;5779;64.178;15.432;2022-08-06T06:06:08;10.00;99.90
11446;DHT22;5779;64.178;15.432;2022-08-06T06:08:55;9.90;99.90
11446;DHT22;5779;64.178;15.432;2022-08-06T06:11:42;9.90;99.90
11446;DHT22;5779;64.178;15.432;2022-08-06T06:14:35;9.90;99.90
11446;DHT22;5779;64.178;15.432;2022-08-06T06:17:40;9.90;99.90
11446;DHT22;5779;64.178;15.432;2022-08-06T06:20:36;9.90;99.90
11446;DHT22;5779;64.178;15.432;2022-08-06T06:23:27;10.00;99.90
11446;DHT22;5779;64.178;15.432;2022-08-06T06:26:20;10.10;99.90
11446;DHT22;5779;64.178;15.432;2022-08-06T06:29:12;10.20;99.90
11446;DHT22;5779;64.178;15.432;2022-08-06T06:32:04;10.50;99.90
11446;DHT22;5779;64.178;15.432;2022-08-06T06:34:59;10.60;99.90
11446;DHT22;5779;64.178;15.432;2022-08-06T06:37:53;10.70;99.90
11446;DHT22;5779;64.178;15.432;2022-08-06T06:40:49;10.90;99.90
11446;DHT22;5779;64.178;15.432;2022-08-06T06:43:43;11.00;99.90
11446;DHT22;5779;64.178;15.432;2022-08-06T06:46:34;10.60;99.90
11446;DHT22;5779;64.178;15.432;2022-08-06T06:49:27;10.40;99.90
11446;DHT22;5779;64.178;15.432;2022-08-06T06:52:28;10.20;99.90
11446;DHT22;5779;64.178;15.432;2022-08-06T06:55:22;10.00;99.90
11446;DHT22;5779;64.178;15.432;2022-08-06T06:58:15;10.00;99.90
11446;DHT22;5779;64.178;15.432;2022-08-06T07:01:04;10.00;99.90
11446;DHT22;5779;64.178;15.432;2022-08-06T07:03:54;10.00;99.90
11446;DHT22;5779;64.178;15.432;2022-08-06T07:06:42;10.00;99.90
11446;DHT22;5779;64.178;15.432;2022-08-06T07:09:33;10.10;99.90
11446;DHT22;5779;64.178;15.432;2022-08-06T07:12:22;10.10;99.90
11446;DHT22;5779;64.178;15.432;2022-08-06T07:15:09;10.20;99.90
11446;DHT22;5779;64.178;15.432;2022-08-06T07:17:58;10.20;99.90
11446;DHT22;5779;64.178;15.432;2022-08-06T07:20:45;10.30;99.90
11446;DHT22;5779;64.178;15.432;2022-08-06T07:23:32;10.60;99.90
11446;DHT22;5779;64.178;15.432;2022-08-06T07:26:22;10.70;99.90
11446;DHT22;5779;64.178;15.432;2022-08-06T07:29:10;10.80;99.90
11446;DHT22;5779;64.178;15.432;2022-08-06T07:31:59;10.80;99.90
11446;DHT22;5779;64.178;15.432;2022-08-06T07:34:46;10.90;99.90
11446;DHT22;5779;64.178;15.432;2022-08-06T07:37:35;10.90;99.90
11446;DHT22;5779;64.178;15.432;2022-08-06T07:40:25;10.90;99.90
11446;DHT22;5779;64.178;15.432;2022-08-06T07:43:16;11.00;99.90
11446;DHT22;5779;64.178;15.432;2022-08-06T07:46:06;11.00;99.90
11446;DHT22;5779;64.178;15.432;2022-08-06T07:48:57;11.00;99.90
11446;DHT22;5779;64.178;15.432;2022-08-06T07:51:47;11.00;99.90
11446;DHT22;5779;64.178;15.432;2022-08-06T07:54:37;11.10;99.90
11446;DHT22;5779;64.178;15.432;2022-08-06T07:57:24;11.20;99.90
11446;DHT22;5779;64.178;15.432;2022-08-06T08:00:13;11.10;99.90
11446;DHT22;5779;64.178;15.432;2022-08-06T08:03:00;11.20;99.90
11446;DHT22;5779;64.178;15.432;2022-08-06T08:06:06;11.20;99.90
11446;DHT22;5779;64.178;15.432;2022-08-06T08:09:10;11.20;99.90
11446;DHT22;5779;64.178;15.432;2022-08-06T08:11:58;11.20;99.90
11446;DHT22;5779;64.178;15.432;2022-08-06T08:14:47;11.20;99.90
11446;DHT22;5779;64.178;15.432;2022-08-06T08:17:35;11.20;99.90
11446;DHT22;5779;64.178;15.432;2022-08-06T08:20:22;11.30;99.90
11446;DHT22;5779;64.178;15.432;2022-08-06T08:23:12;11.50;99.90
11446;DHT22;5779;64.178;15.432;2022-08-06T08:26:00;11.40;99.90
11446;DHT22;5779;64.178;15.432;2022-08-06T08:28:47;11.50;99.90
11446;DHT22;5779;64.178;15.432;2022-08-06T08:31:33;11.50;99.90
11446;DHT22;5779;64.178;15.432;2022-08-06T08:34:22;11.60;99.90
11446;DHT22;5779;64.178;15.432;2022-08-06T08:37:09;11.70;99.90
11446;DHT22;5779;64.178;15.432;2022-08-06T08:39:56;11.80;99.90
11446;DHT22;5779;64.178;15.432;2022-08-06T08:42:44;11.70;99.90
11446;DHT22;5779;64.178;15.432;2022-08-06T08:45:32;11.60;99.90
11446;DHT22;5779;64.178;15.432;2022-08-06T08:48:23;11.80;99.90
11446;DHT22;5779;64.178;15.432;2022-08-06T08:51:15;11.80;99.90
11446;DHT22;5779;64.178;15.432;2022-08-06T08:54:05;11.80;99.90
11446;DHT22;5779;64.178;15.432;2022-08-06T08:56:54;11.90;99.90
11446;DHT22;5779;64.178;15.432;2022-08-06T08:59:41;11.90;99.90
11446;DHT22;5779;64.178;15.432;2022-08-06T09:02:28;11.90;99.90
11446;DHT22;5779;64.178;15.432;2022-08-06T09:05:15;11.80;99.90
11446;DHT22;5779;64.178;15.432;2022-08-06T09:08:04;11.80;99.90
11446;DHT22;5779;64.178;15.432;2022-08-06T09:10:51;11.70;99.90
11446;DHT22;5779;64.178;15.432;2022-08-06T09:13:38;11.70;99.90
11446;DHT22;5779;64.178;15.432;2022-08-06T09:16:25;11.80;99.90
11446;DHT22;5779;64.178;15.432;2022-08-06T09:19:12;11.80;99.90
11446;DHT22;5779;64.178;15.432;2022-08-06T09:21:59;11.90;99.90
11446;DHT22;5779;64.178;15.432;2022-08-06T09:24:47;11.90;99.90
11446;DHT22;5779;64.178;15.432;2022-08-06T09:27:35;11.90;99.90
11446;DHT22;5779;64.178;15.432;2022-08-06T09:30:21;12.00;99.90
11446;DHT22;5779;64.178;15.432;2022-08-06T09:33:12;12.00;99.90
11446;DHT22;5779;64.178;15.432;2022-08-06T09:36:00;12.00;99.90
11446;DHT22;5779;64.178;15.432;2022-08-06T09:38:51;11.90;99.90
11446;DHT22;5779;64.178;15.432;2022-08-06T09:41:47;11.90;99.90
11446;DHT22;5779;64.178;15.432;2022-08-06T09:44:34;11.80;99.90
11446;DHT22;5779;64.178;15.432;2022-08-06T09:47:21;11.90;99.90
11446;DHT22;5779;64.178;15.432;2022-08-06T09:50:09;11.90;99.90
11446;DHT22;5779;64.178;15.432;2022-08-06T09:53:01;11.90;99.90
11446;DHT22;5779;64.178;15.432;2022-08-06T09:55:48;11.90;99.90
11446;DHT22;5779;64.178;15.432;2022-08-06T09:58:36;11.70;99.90
11446;DHT22;5779;64.178;15.432;2022-08-06T10:01:24;11.80;99.90
11446;DHT22;5779;64.178;15.432;2022-08-06T10:04:13;11.70;99.90
11446;DHT22;5779;64.178;15.432;2022-08-06T10:07:00;11.60;99.90
11446;DHT22;5779;64.178;15.432;2022-08-06T10:09:52;11.60;99.90
11446;DHT22;5779;64.178;15.432;2022-08-06T10:12:38;11.70;99.90
11446;DHT22;5779;64.178;15.432;2022-08-06T10:15:29;11.70;99.90
11446;DHT22;5779;64.178;15.432;2022-08-06T10:18:37;11.90;99.90
11446;DHT22;5779;64.178;15.432;2022-08-06T10:21:26;11.80;99.90
11446;DHT22;5779;64.178;15.432;2022-08-06T10:24:14;11.90;99.90
11446;DHT22;5779;64.178;15.432;2022-08-06T10:27:03;12.00;99.90
11446;DHT22;5779;64.178;15.432;2022-08-06T10:29:52;12.10;99.90
11446;DHT22;5779;64.178;15.432;2022-08-06T10:32:45;12.20;99.90
11446;DHT22;5779;64.178;15.432;2022-08-06T10:35:35;12.20;99.90
11446;DHT22;5779;64.178;15.432;2022-08-06T10:38:25;12.10;99.90
11446;DHT22;5779;64.178;15.432;2022-08-06T10:41:13;12.20;99.90
11446;DHT22;5779;64.178;15.432;2022-08-06T10:44:00;12.30;99.90
11446;DHT22;5779;64.178;15.432;2022-08-06T10:46:49;12.40;99.90
11446;DHT22;5779;64.178;15.432;2022-08-06T10:49:38;12.40;99.90
11446;DHT22;5779;64.178;15.432;2022-08-06T10:52:25;12.30;99.90
11446;DHT22;5779;64.178;15.432;2022-08-06T10:55:12;12.40;99.90
11446;DHT22;5779;64.178;15.432;2022-08-06T10:57:58;12.60;99.90
11446;DHT22;5779;64.178;15.432;2022-08-06T11:00:46;12.60;99.90
11446;DHT22;5779;64.178;15.432;2022-08-06T11:03:41;12.40;99.90
11446;DHT22;5779;64.178;15.432;2022-08-06T11:06:56;12.40;99.90
11446;DHT22;5779;64.178;15.432;2022-08-06T11:10:04;12.30;99.90
11446;DHT22;5779;64.178;15.432;2022-08-06T11:12:56;12.30;99.90
11446;DHT22;5779;64.178;15.432;2022-08-06T11:15:43;12.20;99.90
11446;DHT22;5779;64.178;15.432;2022-08-06T11:18:30;12.20;99.90
11446;DHT22;5779;64.178;15.432;2022-08-06T11:21:40;12.30;99.90
11446;DHT22;5779;64.178;15.432;2022-08-06T11:24:29;12.50;99.90
11446;DHT22;5779;64.178;15.432;2022-08-06T11:27:47;12.70;99.90
11446;DHT22;5779;64.178;15.432;2022-08-06T11:30:42;12.70;99.90
11446;DHT22;5779;64.178;15.432;2022-08-06T11:34:00;12.90;99.90
11446;DHT22;5779;64.178;15.432;2022-08-06T11:36:53;12.70;99.90
11446;DHT22;5779;64.178;15.432;2022-08-06T11:40:06;12.90;99.90
11446;DHT22;5779;64.178;15.432;2022-08-06T11:42:53;12.80;99.90
11446;DHT22;5779;64.178;15.432;2022-08-06T11:46:17;12.70;99.90
11446;DHT22;5779;64.178;15.432;2022-08-06T11:49:19;12.60;99.90
11446;DHT22;5779;64.178;15.432;2022-08-06T11:52:08;12.80;99.90
11446;DHT22;5779;64.178;15.432;2022-08-06T11:55:03;12.90;99.90
11446;DHT22;5779;64.178;15.432;2022-08-06T12:00:57;12.90;99.90
11446;DHT22;5779;64.178;15.432;2022-08-06T12:03:43;13.00;99.90
11446;DHT22;5779;64.178;15.432;2022-08-06T12:06:30;13.00;99.90
11446;DHT22;5779;64.178;15.432;2022-08-06T12:09:18;13.00;99.90
11446;DHT22;5779;64.178;15.432;2022-08-06T12:12:34;13.00;99.90
11446;DHT22;5779;64.178;15.432;2022-08-06T12:15:37;13.10;99.90
11446;DHT22;5779;64.178;15.432;2022-08-06T12:18:24;13.10;99.90
11446;DHT22;5779;64.178;15.432;2022-08-06T12:21:11;13.10;99.90
11446;DHT22;5779;64.178;15.432;2022-08-06T12:23:58;13.20;99.90
11446;DHT22;5779;64.178;15.432;2022-08-06T12:26:46;13.00;99.90
11446;DHT22;5779;64.178;15.432;2022-08-06T12:29:34;13.00;99.90
11446;DHT22;5779;64.178;15.432;2022-08-06T12:32:22;13.20;99.90
11446;DHT22;5779;64.178;15.432;2022-08-06T12:35:10;13.20;99.90
11446;DHT22;5779;64.178;15.432;2022-08-06T12:37:57;13.00;99.90
11446;DHT22;5779;64.178;15.432;2022-08-06T12:40:52;12.90;99.90
11446;DHT22;5779;64.178;15.432;2022-08-06T12:43:43;13.00;99.90
11446;DHT22;5779;64.178;15.432;2022-08-06T12:46:30;13.10;99.90
11446;DHT22;5779;64.178;15.432;2022-08-06T12:49:16;13.10;99.90
11446;DHT22;5779;64.178;15.432;2022-08-06T12:52:11;13.10;99.90
11446;DHT22;5779;64.178;15.432;2022-08-06T12:54:58;13.20;99.90
11446;DHT22;5779;64.178;15.432;2022-08-06T12:57:45;13.20;99.90
11446;DHT22;5779;64.178;15.432;2022-08-06T13:00:32;13.30;99.90
11446;DHT22;5779;64.178;15.432;2022-08-06T13:03:22;13.30;99.90
11446;DHT22;5779;64.178;15.432;2022-08-06T13:06:10;13.20;99.90
11446;DHT22;5779;64.178;15.432;2022-08-06T13:08:57;13.40;99.90
11446;DHT22;5779;64.178;15.432;2022-08-06T13:11:44;13.40;99.90
11446;DHT22;5779;64.178;15.432;2022-08-06T13:14:48;13.40;99.90
11446;DHT22;5779;64.178;15.432;2022-08-06T13:17:36;13.40;99.90
11446;DHT22;5779;64.178;15.432;2022-08-06T13:20:23;13.60;99.90
11446;DHT22;5779;64.178;15.432;2022-08-06T13:23:11;13.70;99.90
11446;DHT22;5779;64.178;15.432;2022-08-06T13:25:57;13.90;99.90
11446;DHT22;5779;64.178;15.432;2022-08-06T13:29:05;13.90;99.90
11446;DHT22;5779;64.178;15.432;2022-08-06T13:32:04;14.10;99.90
11446;DHT22;5779;64.178;15.432;2022-08-06T13:34:54;14.30;99.90
11446;DHT22;5779;64.178;15.432;2022-08-06T13:37:46;14.10;99.90
11446;DHT22;5779;64.178;15.432;2022-08-06T13:40:42;14.10;99.90
11446;DHT22;5779;64.178;15.432;2022-08-06T13:43:37;14.10;99.90
11446;DHT22;5779;64.178;15.432;2022-08-06T13:46:25;14.00;99.90
11446;DHT22;5779;64.178;15.432;2022-08-06T13:49:12;14.10;99.90
11446;DHT22;5779;64.178;15.432;2022-08-06T13:52:01;14.00;99.90
11446;DHT22;5779;64.178;15.432;2022-08-06T13:54:48;13.70;99.90
11446;DHT22;5779;64.178;15.432;2022-08-06T13:57:34;13.60;99.90
11446;DHT22;5779;64.178;15.432;2022-08-06T14:00:21;13.70;99.90
11446;DHT22;5779;64.178;15.432;2022-08-06T14:03:08;13.80;99.90
11446;DHT22;5779;64.178;15.432;2022-08-06T14:05:55;13.90;99.90
11446;DHT22;5779;64.178;15.432;2022-08-06T14:08:43;14.10;99.90
11446;DHT22;5779;64.178;15.432;2022-08-06T14:11:30;14.40;99.90
11446;DHT22;5779;64.178;15.432;2022-08-06T14:14:17;14.70;99.90
11446;DHT22;5779;64.178;15.432;2022-08-06T14:17:04;14.50;99.90
11446;DHT22;5779;64.178;15.432;2022-08-06T14:19:50;14.60;99.90
11446;DHT22;5779;64.178;15.432;2022-08-06T14:22:37;14.70;99.90
11446;DHT22;5779;64.178;15.432;2022-08-06T14:25:25;14.50;99.90
11446;DHT22;5779;64.178;15.432;2022-08-06T14:28:12;14.20;99.90
11446;DHT22;5779;64.178;15.432;2022-08-06T14:30:59;14.00;99.90
11446;DHT22;5779;64.178;15.432;2022-08-06T14:33:45;14.10;99.90
11446;DHT22;5779;64.178;15.432;2022-08-06T14:36:32;14.50;99.90
11446;DHT22;5779;64.178;15.432;2022-08-06T14:39:19;14.60;99.90
11446;DHT22;5779;64.178;15.432;2022-08-06T14:42:07;14.20;99.90
11446;DHT22;5779;64.178;15.432;2022-08-06T14:45:11;14.30;99.90
11446;DHT22;5779;64.178;15.432;2022-08-06T14:47:58;14.40;99.90
11446;DHT22;5779;64.178;15.432;2022-08-06T14:50:44;14.20;99.90
11446;DHT22;5779;64.178;15.432;2022-08-06T14:53:31;14.10;99.90
11446;DHT22;5779;64.178;15.432;2022-08-06T14:56:18;13.70;99.90
11446;DHT22;5779;64.178;15.432;2022-08-06T14:59:06;13.20;99.90
11446;DHT22;5779;64.178;15.432;2022-08-06T15:01:52;12.80;99.90
11446;DHT22;5779;64.178;15.432;2022-08-06T15:04:39;12.50;99.90
11446;DHT22;5779;64.178;15.432;2022-08-06T15:07:26;12.40;99.90
11446;DHT22;5779;64.178;15.432;2022-08-06T15:10:13;12.30;99.90
11446;DHT22;5779;64.178;15.432;2022-08-06T15:12:59;12.10;99.90
11446;DHT22;5779;64.178;15.432;2022-08-06T15:15:47;12.00;99.90
11446;DHT22;5779;64.178;15.432;2022-08-06T15:18:34;12.20;99.90
11446;DHT22;5779;64.178;15.432;2022-08-06T15:21:21;12.20;99.90
11446;DHT22;5779;64.178;15.432;2022-08-06T15:24:07;12.30;99.90
11446;DHT22;5779;64.178;15.432;2022-08-06T15:26:54;12.30;99.90
11446;DHT22;5779;64.178;15.432;2022-08-06T15:29:41;12.30;99.90
11446;DHT22;5779;64.178;15.432;2022-08-06T15:32:29;12.40;99.90
11446;DHT22;5779;64.178;15.432;2022-08-06T15:35:16;12.40;99.90
11446;DHT22;5779;64.178;15.432;2022-08-06T15:38:02;12.50;99.90
11446;DHT22;5779;64.178;15.432;2022-08-06T15:40:49;12.60;99.90
11446;DHT22;5779;64.178;15.432;2022-08-06T15:43:36;12.50;99.90
11446;DHT22;5779;64.178;15.432;2022-08-06T15:46:22;12.60;99.90
11446;DHT22;5779;64.178;15.432;2022-08-06T15:49:10;12.50;99.90
11446;DHT22;5779;64.178;15.432;2022-08-06T15:51:57;12.40;99.90
11446;DHT22;5779;64.178;15.432;2022-08-06T15:54:44;12.60;99.90
11446;DHT22;5779;64.178;15.432;2022-08-06T15:57:30;12.50;99.90
11446;DHT22;5779;64.178;15.432;2022-08-06T16:00:17;12.50;99.90
11446;DHT22;5779;64.178;15.432;2022-08-06T16:03:05;12.40;99.90
11446;DHT22;5779;64.178;15.432;2022-08-06T16:05:53;12.10;99.90
11446;DHT22;5779;64.178;15.432;2022-08-06T16:08:40;12.50;99.90
11446;DHT22;5779;64.178;15.432;2022-08-06T16:11:26;12.80;99.90
11446;DHT22;5779;64.178;15.432;2022-08-06T16:14:13;12.50;99.90
11446;DHT22;5779;64.178;15.432;2022-08-06T16:16:59;12.10;99.90
11446;DHT22;5779;64.178;15.432;2022-08-06T16:19:46;11.90;99.90
11446;DHT22;5779;64.178;15.432;2022-08-06T16:22:34;11.70;99.90
11446;DHT22;5779;64.178;15.432;2022-08-06T16:25:21;11.90;99.90
11446;DHT22;5779;64.178;15.432;2022-08-06T16:28:09;12.30;99.90
11446;DHT22;5779;64.178;15.432;2022-08-06T16:30:56;12.70;99.90
11446;DHT22;5779;64.178;15.432;2022-08-06T16:33:42;12.80;99.90
11446;DHT22;5779;64.178;15.432;2022-08-06T16:36:28;13.00;99.90
11446;DHT22;5779;64.178;15.432;2022-08-06T16:39:17;13.00;99.90
11446;DHT22;5779;64.178;15.432;2022-08-06T16:42:05;12.90;99.90
11446;DHT22;5779;64.178;15.432;2022-08-06T16:44:51;12.60;99.90
11446;DHT22;5779;64.178;15.432;2022-08-06T16:47:38;12.10;99.90
11446;DHT22;5779;64.178;15.432;2022-08-06T16:50:25;12.10;99.90
11446;DHT22;5779;64.178;15.432;2022-08-06T16:53:11;12.30;99.90
11446;DHT22;5779;64.178;15.432;2022-08-06T16:56:00;12.60;99.90
11446;DHT22;5779;64.178;15.432;2022-08-06T16:58:46;12.70;99.90
11446;DHT22;5779;64.178;15.432;2022-08-06T17:01:35;12.60;99.90
11446;DHT22;5779;64.178;15.432;2022-08-06T17:04:22;12.50;99.90
11446;DHT22;5779;64.178;15.432;2022-08-06T17:07:08;12.10;99.90
11446;DHT22;5779;64.178;15.432;2022-08-06T17:09:56;11.80;99.90
11446;DHT22;5779;64.178;15.432;2022-08-06T17:12:46;11.70;99.90
11446;DHT22;5779;64.178;15.432;2022-08-06T17:15:33;11.60;99.90
11446;DHT22;5779;64.178;15.432;2022-08-06T17:18:20;11.50;99.90
11446;DHT22;5779;64.178;15.432;2022-08-06T17:21:07;11.40;99.90
11446;DHT22;5779;64.178;15.432;2022-08-06T17:23:53;11.50;99.90
11446;DHT22;5779;64.178;15.432;2022-08-06T17:26:41;11.70;99.90
11446;DHT22;5779;64.178;15.432;2022-08-06T17:29:29;11.70;99.90
11446;DHT22;5779;64.178;15.432;2022-08-06T17:32:17;11.50;99.90
11446;DHT22;5779;64.178;15.432;2022-08-06T17:35:06;11.60;99.90
11446;DHT22;5779;64.178;15.432;2022-08-06T17:37:55;11.40;99.90
11446;DHT22;5779;64.178;15.432;2022-08-06T17:40:43;11.40;99.90
11446;DHT22;5779;64.178;15.432;2022-08-06T17:43:30;11.70;99.90
11446;DHT22;5779;64.178;15.432;2022-08-06T17:46:17;11.90;99.90
11446;DHT22;5779;64.178;15.432;2022-08-06T17:49:04;11.80;99.90
11446;DHT22;5779;64.178;15.432;2022-08-06T17:51:51;11.70;99.90
11446;DHT22;5779;64.178;15.432;2022-08-06T17:54:38;11.50;99.90
11446;DHT22;5779;64.178;15.432;2022-08-06T17:57:24;11.30;99.90
11446;DHT22;5779;64.178;15.432;2022-08-06T18:00:11;11.10;99.90